sensor_id;sensor_type;location;lat;lon;timestamp;temperature;humidity
23719;DHT22;43322;52.230;5.702;2023-02-15T00:01:32;2.40;99.90
23719;DHT22;43322;52.230;5.702;2023-02-15T00:04:01;2.30;99.90
23719;DHT22;43322;52.230;5.702;2023-02-15T00:06:28;2.30;99.90
23719;DHT22;43322;52.230;5.702;2023-02-15T00:08:55;2.30;99.90
23719;DHT22;43322;52.230;5.702;2023-02-15T00:11:22;2.20;99.90
23719;DHT22;43322;52.230;5.702;2023-02-15T00:14:03;2.20;99.90
23719;DHT22;43322;52.230;5.702;2023-02-15T00:16:30;2.20;99.90
23719;DHT22;43322;52.230;5.702;2023-02-15T00:18:57;2.20;99.90
23719;DHT22;43322;52.230;5.702;2023-02-15T00:21:29;2.20;99.90
23719;DHT22;43322;52.230;5.702;2023-02-15T00:23:57;2.20;99.90
23719;DHT22;43322;52.230;5.702;2023-02-15T00:26:25;2.20;99.90
23719;DHT22;43322;52.230;5.702;2023-02-15T00:28:52;2.20;99.90
23719;DHT22;43322;52.230;5.702;2023-02-15T00:31:20;2.10;99.90
23719;DHT22;43322;52.230;5.702;2023-02-15T00:33:47;2.10;99.90
23719;DHT22;43322;52.230;5.702;2023-02-15T00:36:14;2.10;99.90
23719;DHT22;43322;52.230;5.702;2023-02-15T00:38:42;2.10;99.90
23719;DHT22;43322;52.230;5.702;2023-02-15T00:41:10;2.10;99.90
23719;DHT22;43322;52.230;5.702;2023-02-15T00:43:37;1.90;99.90
23719;DHT22;43322;52.230;5.702;2023-02-15T00:46:04;2.00;99.90
23719;DHT22;43322;52.230;5.702;2023-02-15T00:48:32;1.90;99.90
23719;DHT22;43322;52.230;5.702;2023-02-15T00:50:59;1.90;99.90
23719;DHT22;43322;52.230;5.702;2023-02-15T00:53:27;1.80;99.90
23719;DHT22;43322;52.230;5.702;2023-02-15T00:55:55;1.80;99.90
23719;DHT22;43322;52.230;5.702;2023-02-15T00:58:22;1.80;99.90
23719;DHT22;43322;52.230;5.702;2023-02-15T01:00:50;1.80;99.90
23719;DHT22;43322;52.230;5.702;2023-02-15T01:03:18;1.80;99.90
23719;DHT22;43322;52.230;5.702;2023-02-15T01:05:46;1.80;99.90
23719;DHT22;43322;52.230;5.702;2023-02-15T01:08:14;1.80;99.90
23719;DHT22;43322;52.230;5.702;2023-02-15T01:10:41;1.80;99.90
23719;DHT22;43322;52.230;5.702;2023-02-15T01:13:11;1.80;99.90
23719;DHT22;43322;52.230;5.702;2023-02-15T01:15:38;1.80;99.90
23719;DHT22;43322;52.230;5.702;2023-02-15T01:18:05;1.80;99.90
23719;DHT22;43322;52.230;5.702;2023-02-15T01:20:35;1.80;99.90
23719;DHT22;43322;52.230;5.702;2023-02-15T01:23:05;1.90;99.90
23719;DHT22;43322;52.230;5.702;2023-02-15T01:25:33;1.90;99.90
23719;DHT22;43322;52.230;5.702;2023-02-15T01:28:00;1.80;99.90
23719;DHT22;43322;52.230;5.702;2023-02-15T01:30:29;1.80;99.90
23719;DHT22;43322;52.230;5.702;2023-02-15T01:32:57;1.80;99.90
23719;DHT22;43322;52.230;5.702;2023-02-15T01:35:24;1.80;99.90
23719;DHT22;43322;52.230;5.702;2023-02-15T01:37:51;1.70;99.90
23719;DHT22;43322;52.230;5.702;2023-02-15T01:40:18;1.70;99.90
23719;DHT22;43322;52.230;5.702;2023-02-15T01:42:49;1.70;99.90
23719;DHT22;43322;52.230;5.702;2023-02-15T01:45:20;1.80;99.90
23719;DHT22;43322;52.230;5.702;2023-02-15T01:47:54;1.70;99.90
23719;DHT22;43322;52.230;5.702;2023-02-15T01:50:26;1.80;99.90
23719;DHT22;43322;52.230;5.702;2023-02-15T01:52:58;1.80;99.90
23719;DHT22;43322;52.230;5.702;2023-02-15T01:55:28;1.80;99.90
23719;DHT22;43322;52.230;5.702;2023-02-15T01:57:56;1.80;99.90
23719;DHT22;43322;52.230;5.702;2023-02-15T02:00:23;2.10;99.90
23719;DHT22;43322;52.230;5.702;2023-02-15T02:02:53;1.80;99.90
23719;DHT22;43322;52.230;5.702;2023-02-15T02:05:22;1.70;99.90
23719;DHT22;43322;52.230;5.702;2023-02-15T02:07:51;1.70;99.90
23719;DHT22;43322;52.230;5.702;2023-02-15T02:10:20;1.70;99.90
23719;DHT22;43322;52.230;5.702;2023-02-15T02:12:52;1.60;99.90
23719;DHT22;43322;52.230;5.702;2023-02-15T02:15:24;1.60;99.90
23719;DHT22;43322;52.230;5.702;2023-02-15T02:18:04;1.60;99.90
23719;DHT22;43322;52.230;5.702;2023-02-15T02:20:58;1.60;99.90
23719;DHT22;43322;52.230;5.702;2023-02-15T02:23:45;1.60;99.90
23719;DHT22;43322;52.230;5.702;2023-02-15T02:26:48;1.50;99.90
23719;DHT22;43322;52.230;5.702;2023-02-15T02:30:03;1.40;99.90
23719;DHT22;43322;52.230;5.702;2023-02-15T02:32:59;1.40;99.90
23719;DHT22;43322;52.230;5.702;2023-02-15T02:35:39;1.40;99.90
23719;DHT22;43322;52.230;5.702;2023-02-15T02:38:16;1.50;99.90
23719;DHT22;43322;52.230;5.702;2023-02-15T02:40:52;1.60;99.90
23719;DHT22;43322;52.230;5.702;2023-02-15T02:43:25;1.60;99.90
23719;DHT22;43322;52.230;5.702;2023-02-15T02:45:58;1.70;99.90
23719;DHT22;43322;52.230;5.702;2023-02-15T02:48:30;1.80;99.90
23719;DHT22;43322;52.230;5.702;2023-02-15T02:50:58;1.70;99.90
23719;DHT22;43322;52.230;5.702;2023-02-15T02:53:26;1.60;99.90
23719;DHT22;43322;52.230;5.702;2023-02-15T02:55:56;1.50;99.90
23719;DHT22;43322;52.230;5.702;2023-02-15T02:58:29;1.30;99.90
23719;DHT22;43322;52.230;5.702;2023-02-15T03:01:02;1.50;99.90
23719;DHT22;43322;52.230;5.702;2023-02-15T03:03:37;1.60;99.90
23719;DHT22;43322;52.230;5.702;2023-02-15T03:06:07;1.70;99.90
23719;DHT22;43322;52.230;5.702;2023-02-15T03:08:40;1.70;99.90
23719;DHT22;43322;52.230;5.702;2023-02-15T03:11:09;1.80;99.90
23719;DHT22;43322;52.230;5.702;2023-02-15T03:13:37;1.90;99.90
23719;DHT22;43322;52.230;5.702;2023-02-15T03:16:05;1.90;99.90
23719;DHT22;43322;52.230;5.702;2023-02-15T03:18:55;1.80;99.90
23719;DHT22;43322;52.230;5.702;2023-02-15T03:21:30;1.70;99.90
23719;DHT22;43322;52.230;5.702;2023-02-15T03:24:01;1.60;99.90
23719;DHT22;43322;52.230;5.702;2023-02-15T03:26:30;1.50;99.90
23719;DHT22;43322;52.230;5.702;2023-02-15T03:29:00;1.40;99.90
23719;DHT22;43322;52.230;5.702;2023-02-15T03:31:32;1.40;99.90
23719;DHT22;43322;52.230;5.702;2023-02-15T03:34:03;1.30;99.90
23719;DHT22;43322;52.230;5.702;2023-02-15T03:36:36;1.30;99.90
23719;DHT22;43322;52.230;5.702;2023-02-15T03:39:10;1.40;99.90
23719;DHT22;43322;52.230;5.702;2023-02-15T03:41:42;1.50;99.90
23719;DHT22;43322;52.230;5.702;2023-02-15T03:44:17;1.60;99.90
23719;DHT22;43322;52.230;5.702;2023-02-15T03:46:50;1.50;99.90
23719;DHT22;43322;52.230;5.702;2023-02-15T03:49:24;1.40;99.90
23719;DHT22;43322;52.230;5.702;2023-02-15T03:51:53;1.30;99.90
23719;DHT22;43322;52.230;5.702;2023-02-15T03:54:24;1.20;99.90
23719;DHT22;43322;52.230;5.702;2023-02-15T03:57:14;1.20;99.90
23719;DHT22;43322;52.230;5.702;2023-02-15T03:59:59;1.20;99.90
23719;DHT22;43322;52.230;5.702;2023-02-15T04:02:55;1.20;99.90
23719;DHT22;43322;52.230;5.702;2023-02-15T04:05:28;1.10;99.90
23719;DHT22;43322;52.230;5.702;2023-02-15T04:07:55;1.20;99.90
23719;DHT22;43322;52.230;5.702;2023-02-15T04:10:21;1.20;99.90
23719;DHT22;43322;52.230;5.702;2023-02-15T04:13:06;1.20;99.90
23719;DHT22;43322;52.230;5.702;2023-02-15T04:15:33;1.20;99.90
23719;DHT22;43322;52.230;5.702;2023-02-15T04:18:17;1.30;99.90
23719;DHT22;43322;52.230;5.702;2023-02-15T04:20:46;1.30;99.90
23719;DHT22;43322;52.230;5.702;2023-02-15T04:23:30;1.20;99.90
23719;DHT22;43322;52.230;5.702;2023-02-15T04:26:15;1.10;99.90
23719;DHT22;43322;52.230;5.702;2023-02-15T04:28:41;1.10;99.90
23719;DHT22;43322;52.230;5.702;2023-02-15T04:31:08;1.00;99.90
23719;DHT22;43322;52.230;5.702;2023-02-15T04:33:35;1.00;99.90
23719;DHT22;43322;52.230;5.702;2023-02-15T04:36:05;0.90;99.90
23719;DHT22;43322;52.230;5.702;2023-02-15T04:38:32;0.90;99.90
23719;DHT22;43322;52.230;5.702;2023-02-15T04:40:58;0.90;99.90
23719;DHT22;43322;52.230;5.702;2023-02-15T04:43:26;1.00;99.90
23719;DHT22;43322;52.230;5.702;2023-02-15T04:45:53;1.00;99.90
23719;DHT22;43322;52.230;5.702;2023-02-15T04:48:20;1.00;99.90
23719;DHT22;43322;52.230;5.702;2023-02-15T04:50:47;1.20;99.90
23719;DHT22;43322;52.230;5.702;2023-02-15T04:53:15;2.10;99.90
23719;DHT22;43322;52.230;5.702;2023-02-15T04:55:43;1.60;99.90
23719;DHT22;43322;52.230;5.702;2023-02-15T04:58:10;1.60;99.90
23719;DHT22;43322;52.230;5.702;2023-02-15T05:00:37;1.60;99.90
23719;DHT22;43322;52.230;5.702;2023-02-15T05:03:04;1.70;99.90
23719;DHT22;43322;52.230;5.702;2023-02-15T05:05:31;1.80;99.90
23719;DHT22;43322;52.230;5.702;2023-02-15T05:07:58;1.80;99.90
23719;DHT22;43322;52.230;5.702;2023-02-15T05:10:26;1.70;99.90
23719;DHT22;43322;52.230;5.702;2023-02-15T05:12:53;1.80;99.90
23719;DHT22;43322;52.230;5.702;2023-02-15T05:15:20;1.70;99.90
23719;DHT22;43322;52.230;5.702;2023-02-15T05:17:47;1.80;99.90
23719;DHT22;43322;52.230;5.702;2023-02-15T05:20:14;1.80;99.90
23719;DHT22;43322;52.230;5.702;2023-02-15T05:22:41;1.80;99.90
23719;DHT22;43322;52.230;5.702;2023-02-15T05:25:08;1.70;99.90
23719;DHT22;43322;52.230;5.702;2023-02-15T05:27:54;1.70;99.90
23719;DHT22;43322;52.230;5.702;2023-02-15T05:30:38;1.70;99.90
23719;DHT22;43322;52.230;5.702;2023-02-15T05:33:06;1.60;99.90
23719;DHT22;43322;52.230;5.702;2023-02-15T05:35:34;1.60;99.90
23719;DHT22;43322;52.230;5.702;2023-02-15T05:38:01;1.60;99.90
23719;DHT22;43322;52.230;5.702;2023-02-15T05:40:28;1.60;99.90
23719;DHT22;43322;52.230;5.702;2023-02-15T05:42:57;1.60;99.90
23719;DHT22;43322;52.230;5.702;2023-02-15T05:45:24;1.60;99.90
23719;DHT22;43322;52.230;5.702;2023-02-15T05:47:51;1.60;99.90
23719;DHT22;43322;52.230;5.702;2023-02-15T05:50:18;1.60;99.90
23719;DHT22;43322;52.230;5.702;2023-02-15T05:52:46;1.60;99.90
23719;DHT22;43322;52.230;5.702;2023-02-15T05:55:13;1.60;99.90
23719;DHT22;43322;52.230;5.702;2023-02-15T05:57:40;1.70;99.90
23719;DHT22;43322;52.230;5.702;2023-02-15T06:00:10;1.60;99.90
23719;DHT22;43322;52.230;5.702;2023-02-15T06:02:38;1.50;99.90
23719;DHT22;43322;52.230;5.702;2023-02-15T06:05:06;1.50;99.90
23719;DHT22;43322;52.230;5.702;2023-02-15T06:07:32;1.50;99.90
23719;DHT22;43322;52.230;5.702;2023-02-15T06:09:59;1.40;99.90
23719;DHT22;43322;52.230;5.702;2023-02-15T06:12:26;1.40;99.90
23719;DHT22;43322;52.230;5.702;2023-02-15T06:14:53;1.40;99.90
23719;DHT22;43322;52.230;5.702;2023-02-15T06:17:22;1.40;99.90
23719;DHT22;43322;52.230;5.702;2023-02-15T06:19:49;1.30;99.90
23719;DHT22;43322;52.230;5.702;2023-02-15T06:22:15;1.20;99.90
23719;DHT22;43322;52.230;5.702;2023-02-15T06:24:42;1.20;99.90
23719;DHT22;43322;52.230;5.702;2023-02-15T06:27:09;1.20;99.90
23719;DHT22;43322;52.230;5.702;2023-02-15T06:29:36;1.20;99.90
23719;DHT22;43322;52.230;5.702;2023-02-15T06:32:04;1.20;99.90
23719;DHT22;43322;52.230;5.702;2023-02-15T06:34:32;1.20;99.90
23719;DHT22;43322;52.230;5.702;2023-02-15T06:36:59;1.20;99.90
23719;DHT22;43322;52.230;5.702;2023-02-15T06:39:26;1.20;99.90
23719;DHT22;43322;52.230;5.702;2023-02-15T06:41:53;1.30;99.90
23719;DHT22;43322;52.230;5.702;2023-02-15T06:44:20;1.20;99.90
23719;DHT22;43322;52.230;5.702;2023-02-15T06:46:47;1.10;99.90
23719;DHT22;43322;52.230;5.702;2023-02-15T06:49:14;1.10;99.90
23719;DHT22;43322;52.230;5.702;2023-02-15T06:51:42;1.40;99.90
23719;DHT22;43322;52.230;5.702;2023-02-15T06:54:08;1.10;99.90
23719;DHT22;43322;52.230;5.702;2023-02-15T06:56:35;1.10;99.90
23719;DHT22;43322;52.230;5.702;2023-02-15T06:59:02;1.10;99.90
23719;DHT22;43322;52.230;5.702;2023-02-15T07:01:29;1.10;99.90
23719;DHT22;43322;52.230;5.702;2023-02-15T07:03:56;1.20;99.90
23719;DHT22;43322;52.230;5.702;2023-02-15T07:06:23;1.20;99.90
23719;DHT22;43322;52.230;5.702;2023-02-15T07:08:51;1.20;99.90
23719;DHT22;43322;52.230;5.702;2023-02-15T07:11:18;1.20;99.90
23719;DHT22;43322;52.230;5.702;2023-02-15T07:14:02;1.30;99.90
23719;DHT22;43322;52.230;5.702;2023-02-15T07:16:29;1.30;99.90
23719;DHT22;43322;52.230;5.702;2023-02-15T07:18:56;1.30;99.90
23719;DHT22;43322;52.230;5.702;2023-02-15T07:21:22;1.30;99.90
23719;DHT22;43322;52.230;5.702;2023-02-15T07:23:51;1.30;99.90
23719;DHT22;43322;52.230;5.702;2023-02-15T07:26:17;1.40;99.90
23719;DHT22;43322;52.230;5.702;2023-02-15T07:28:44;1.40;99.90
23719;DHT22;43322;52.230;5.702;2023-02-15T07:31:11;1.40;99.90
23719;DHT22;43322;52.230;5.702;2023-02-15T07:33:38;1.40;99.90
23719;DHT22;43322;52.230;5.702;2023-02-15T07:36:06;1.40;99.90
23719;DHT22;43322;52.230;5.702;2023-02-15T07:38:36;1.40;99.90
23719;DHT22;43322;52.230;5.702;2023-02-15T07:41:06;1.50;99.90
23719;DHT22;43322;52.230;5.702;2023-02-15T07:43:34;1.60;99.90
23719;DHT22;43322;52.230;5.702;2023-02-15T07:46:01;2.10;99.90
23719;DHT22;43322;52.230;5.702;2023-02-15T07:48:29;1.70;99.90
23719;DHT22;43322;52.230;5.702;2023-02-15T07:50:58;1.70;99.90
23719;DHT22;43322;52.230;5.702;2023-02-15T07:53:25;1.80;99.90
23719;DHT22;43322;52.230;5.702;2023-02-15T07:55:52;2.00;99.90
23719;DHT22;43322;52.230;5.702;2023-02-15T07:58:21;2.10;99.90
23719;DHT22;43322;52.230;5.702;2023-02-15T08:01:08;2.20;99.90
23719;DHT22;43322;52.230;5.702;2023-02-15T08:03:35;2.50;99.90
23719;DHT22;43322;52.230;5.702;2023-02-15T08:06:02;2.70;99.90
23719;DHT22;43322;52.230;5.702;2023-02-15T08:08:29;2.80;99.90
23719;DHT22;43322;52.230;5.702;2023-02-15T08:11:00;2.80;99.90
23719;DHT22;43322;52.230;5.702;2023-02-15T08:13:46;3.00;99.90
23719;DHT22;43322;52.230;5.702;2023-02-15T08:16:22;3.10;99.90
23719;DHT22;43322;52.230;5.702;2023-02-15T08:18:50;3.20;99.90
23719;DHT22;43322;52.230;5.702;2023-02-15T08:21:17;3.40;99.90
23719;DHT22;43322;52.230;5.702;2023-02-15T08:23:45;3.40;99.90
23719;DHT22;43322;52.230;5.702;2023-02-15T08:26:13;3.40;99.90
23719;DHT22;43322;52.230;5.702;2023-02-15T08:28:42;3.50;99.90
23719;DHT22;43322;52.230;5.702;2023-02-15T08:31:12;3.40;99.90
23719;DHT22;43322;52.230;5.702;2023-02-15T08:33:40;3.30;99.90
23719;DHT22;43322;52.230;5.702;2023-02-15T08:36:10;3.40;99.90
23719;DHT22;43322;52.230;5.702;2023-02-15T08:38:37;3.50;99.90
23719;DHT22;43322;52.230;5.702;2023-02-15T08:41:12;3.80;99.90
23719;DHT22;43322;52.230;5.702;2023-02-15T08:43:40;3.90;99.90
23719;DHT22;43322;52.230;5.702;2023-02-15T08:46:08;4.10;99.90
23719;DHT22;43322;52.230;5.702;2023-02-15T08:48:37;4.30;99.90
23719;DHT22;43322;52.230;5.702;2023-02-15T08:51:05;4.20;99.90
23719;DHT22;43322;52.230;5.702;2023-02-15T08:53:32;4.40;99.90
23719;DHT22;43322;52.230;5.702;2023-02-15T08:55:59;4.90;99.90
23719;DHT22;43322;52.230;5.702;2023-02-15T08:58:28;5.20;99.90
23719;DHT22;43322;52.230;5.702;2023-02-15T09:00:56;5.30;99.90
23719;DHT22;43322;52.230;5.702;2023-02-15T09:03:23;5.40;99.90
23719;DHT22;43322;52.230;5.702;2023-02-15T09:05:57;5.80;99.90
23719;DHT22;43322;52.230;5.702;2023-02-15T09:08:24;6.40;99.90
23719;DHT22;43322;52.230;5.702;2023-02-15T09:10:51;7.00;99.90
23719;DHT22;43322;52.230;5.702;2023-02-15T09:13:18;7.50;99.90
23719;DHT22;43322;52.230;5.702;2023-02-15T09:15:45;7.00;99.90
23719;DHT22;43322;52.230;5.702;2023-02-15T09:18:12;6.80;99.90
23719;DHT22;43322;52.230;5.702;2023-02-15T09:20:43;6.60;99.90
23719;DHT22;43322;52.230;5.702;2023-02-15T09:23:11;6.50;99.90
23719;DHT22;43322;52.230;5.702;2023-02-15T09:25:39;6.40;99.90
23719;DHT22;43322;52.230;5.702;2023-02-15T09:28:08;6.00;99.90
23719;DHT22;43322;52.230;5.702;2023-02-15T09:30:35;5.80;99.90
23719;DHT22;43322;52.230;5.702;2023-02-15T09:33:02;5.60;99.90
23719;DHT22;43322;52.230;5.702;2023-02-15T09:35:29;5.50;99.90
23719;DHT22;43322;52.230;5.702;2023-02-15T09:37:56;5.50;99.90
23719;DHT22;43322;52.230;5.702;2023-02-15T09:40:24;6.20;99.90
23719;DHT22;43322;52.230;5.702;2023-02-15T09:43:18;5.60;99.90
23719;DHT22;43322;52.230;5.702;2023-02-15T09:48:42;6.00;99.90
23719;DHT22;43322;52.230;5.702;2023-02-15T09:54:25;6.30;99.90
23719;DHT22;43322;52.230;5.702;2023-02-15T09:56:59;6.40;99.90
23719;DHT22;43322;52.230;5.702;2023-02-15T09:59:35;6.60;99.90
23719;DHT22;43322;52.230;5.702;2023-02-15T10:02:16;6.70;99.90
23719;DHT22;43322;52.230;5.702;2023-02-15T10:04:54;6.50;99.90
23719;DHT22;43322;52.230;5.702;2023-02-15T10:07:41;6.60;99.90
23719;DHT22;43322;52.230;5.702;2023-02-15T10:10:18;6.90;99.90
23719;DHT22;43322;52.230;5.702;2023-02-15T10:13:00;7.00;99.90
23719;DHT22;43322;52.230;5.702;2023-02-15T10:15:44;7.20;99.90
23719;DHT22;43322;52.230;5.702;2023-02-15T10:18:34;7.60;99.90
23719;DHT22;43322;52.230;5.702;2023-02-15T10:21:08;7.40;99.90
23719;DHT22;43322;52.230;5.702;2023-02-15T10:23:53;7.60;99.90
23719;DHT22;43322;52.230;5.702;2023-02-15T10:26:30;7.60;99.90
23719;DHT22;43322;52.230;5.702;2023-02-15T10:29:06;7.60;99.90
23719;DHT22;43322;52.230;5.702;2023-02-15T10:31:39;7.50;99.90
23719;DHT22;43322;52.230;5.702;2023-02-15T10:34:15;7.60;99.90
23719;DHT22;43322;52.230;5.702;2023-02-15T10:39:39;8.70;99.90
23719;DHT22;43322;52.230;5.702;2023-02-15T10:42:13;8.50;99.90
23719;DHT22;43322;52.230;5.702;2023-02-15T10:44:54;8.60;99.90
23719;DHT22;43322;52.230;5.702;2023-02-15T10:47:39;8.80;99.90
23719;DHT22;43322;52.230;5.702;2023-02-15T10:50:20;9.10;99.90
23719;DHT22;43322;52.230;5.702;2023-02-15T10:52:58;9.50;99.90
23719;DHT22;43322;52.230;5.702;2023-02-15T10:55:38;10.00;99.90
23719;DHT22;43322;52.230;5.702;2023-02-15T10:58:11;10.60;99.90
23719;DHT22;43322;52.230;5.702;2023-02-15T11:00:46;10.60;99.90
23719;DHT22;43322;52.230;5.702;2023-02-15T11:03:33;10.80;99.90
23719;DHT22;43322;52.230;5.702;2023-02-15T11:06:05;11.00;99.90
23719;DHT22;43322;52.230;5.702;2023-02-15T11:08:38;10.80;99.90
23719;DHT22;43322;52.230;5.702;2023-02-15T11:11:07;10.60;99.90
23719;DHT22;43322;52.230;5.702;2023-02-15T11:13:39;11.20;99.90
23719;DHT22;43322;52.230;5.702;2023-02-15T11:16:11;11.30;99.90
23719;DHT22;43322;52.230;5.702;2023-02-15T11:18:41;11.00;99.90
23719;DHT22;43322;52.230;5.702;2023-02-15T11:21:17;10.80;99.90
23719;DHT22;43322;52.230;5.702;2023-02-15T11:23:46;10.90;99.90
23719;DHT22;43322;52.230;5.702;2023-02-15T11:26:15;11.50;99.90
23719;DHT22;43322;52.230;5.702;2023-02-15T11:28:49;11.30;99.90
23719;DHT22;43322;52.230;5.702;2023-02-15T11:31:22;12.20;99.90
23719;DHT22;43322;52.230;5.702;2023-02-15T11:33:52;12.80;99.90
23719;DHT22;43322;52.230;5.702;2023-02-15T11:36:23;13.50;99.90
23719;DHT22;43322;52.230;5.702;2023-02-15T11:38:56;13.70;99.90
23719;DHT22;43322;52.230;5.702;2023-02-15T11:41:27;14.00;99.90
23719;DHT22;43322;52.230;5.702;2023-02-15T11:43:58;13.40;99.90
23719;DHT22;43322;52.230;5.702;2023-02-15T11:46:28;13.50;99.90
23719;DHT22;43322;52.230;5.702;2023-02-15T11:48:55;13.50;99.90
23719;DHT22;43322;52.230;5.702;2023-02-15T11:51:24;12.90;99.90
23719;DHT22;43322;52.230;5.702;2023-02-15T11:53:53;13.40;99.90
23719;DHT22;43322;52.230;5.702;2023-02-15T11:56:22;12.80;99.90
23719;DHT22;43322;52.230;5.702;2023-02-15T11:58:55;14.70;99.90
23719;DHT22;43322;52.230;5.702;2023-02-15T12:01:27;14.20;99.90
23719;DHT22;43322;52.230;5.702;2023-02-15T12:03:59;14.00;99.90
23719;DHT22;43322;52.230;5.702;2023-02-15T12:06:28;13.50;99.90
23719;DHT22;43322;52.230;5.702;2023-02-15T12:09:02;13.40;99.90
23719;DHT22;43322;52.230;5.702;2023-02-15T12:11:35;13.50;99.90
23719;DHT22;43322;52.230;5.702;2023-02-15T12:14:04;13.10;99.90
23719;DHT22;43322;52.230;5.702;2023-02-15T12:16:39;13.90;99.90
23719;DHT22;43322;52.230;5.702;2023-02-15T12:19:27;13.70;99.90
23719;DHT22;43322;52.230;5.702;2023-02-15T12:21:54;13.90;99.90
23719;DHT22;43322;52.230;5.702;2023-02-15T12:24:26;13.80;99.90
23719;DHT22;43322;52.230;5.702;2023-02-15T12:27:00;13.50;99.90
23719;DHT22;43322;52.230;5.702;2023-02-15T12:29:29;13.70;99.90
23719;DHT22;43322;52.230;5.702;2023-02-15T12:31:57;14.40;99.90
23719;DHT22;43322;52.230;5.702;2023-02-15T12:34:29;14.60;99.90
23719;DHT22;43322;52.230;5.702;2023-02-15T12:36:57;14.70;99.90
23719;DHT22;43322;52.230;5.702;2023-02-15T12:39:29;14.50;99.90
23719;DHT22;43322;52.230;5.702;2023-02-15T12:42:02;14.00;99.90
23719;DHT22;43322;52.230;5.702;2023-02-15T12:44:31;13.80;99.90
23719;DHT22;43322;52.230;5.702;2023-02-15T12:47:01;13.80;99.90
23719;DHT22;43322;52.230;5.702;2023-02-15T12:49:31;13.70;99.90
23719;DHT22;43322;52.230;5.702;2023-02-15T12:52:01;13.50;99.90
23719;DHT22;43322;52.230;5.702;2023-02-15T12:54:34;13.50;99.90
23719;DHT22;43322;52.230;5.702;2023-02-15T12:57:24;13.50;99.90
23719;DHT22;43322;52.230;5.702;2023-02-15T12:59:54;13.70;99.90
23719;DHT22;43322;52.230;5.702;2023-02-15T13:02:30;13.60;99.90
23719;DHT22;43322;52.230;5.702;2023-02-15T13:05:15;13.90;99.90
23719;DHT22;43322;52.230;5.702;2023-02-15T13:07:45;14.50;99.90
23719;DHT22;43322;52.230;5.702;2023-02-15T13:10:21;14.70;99.90
23719;DHT22;43322;52.230;5.702;2023-02-15T13:12:50;15.00;99.90
23719;DHT22;43322;52.230;5.702;2023-02-15T13:15:28;14.00;99.90
23719;DHT22;43322;52.230;5.702;2023-02-15T13:17:57;14.30;99.90
23719;DHT22;43322;52.230;5.702;2023-02-15T13:20:27;13.80;99.90
23719;DHT22;43322;52.230;5.702;2023-02-15T13:22:59;13.50;99.90
23719;DHT22;43322;52.230;5.702;2023-02-15T13:25:32;13.10;99.90
23719;DHT22;43322;52.230;5.702;2023-02-15T13:28:02;13.20;99.90
23719;DHT22;43322;52.230;5.702;2023-02-15T13:30:32;13.00;99.90
23719;DHT22;43322;52.230;5.702;2023-02-15T13:33:03;12.90;99.90
23719;DHT22;43322;52.230;5.702;2023-02-15T13:35:38;13.30;99.90
23719;DHT22;43322;52.230;5.702;2023-02-15T13:38:15;13.30;99.90
23719;DHT22;43322;52.230;5.702;2023-02-15T13:40:48;13.00;99.90
23719;DHT22;43322;52.230;5.702;2023-02-15T13:43:29;13.20;99.90
23719;DHT22;43322;52.230;5.702;2023-02-15T13:46:19;13.10;99.90
23719;DHT22;43322;52.230;5.702;2023-02-15T13:48:55;12.80;99.90
23719;DHT22;43322;52.230;5.702;2023-02-15T13:51:32;12.60;99.90
23719;DHT22;43322;52.230;5.702;2023-02-15T13:54:27;12.50;99.90
23719;DHT22;43322;52.230;5.702;2023-02-15T13:57:04;12.30;99.90
23719;DHT22;43322;52.230;5.702;2023-02-15T13:59:54;12.20;99.90
23719;DHT22;43322;52.230;5.702;2023-02-15T14:02:38;12.20;99.90
23719;DHT22;43322;52.230;5.702;2023-02-15T14:05:25;12.20;99.90
23719;DHT22;43322;52.230;5.702;2023-02-15T14:08:04;12.20;99.90
23719;DHT22;43322;52.230;5.702;2023-02-15T14:10:43;12.00;99.90
23719;DHT22;43322;52.230;5.702;2023-02-15T14:13:32;12.00;99.90
23719;DHT22;43322;52.230;5.702;2023-02-15T14:16:04;12.00;99.90
23719;DHT22;43322;52.230;5.702;2023-02-15T14:18:38;11.90;99.90
23719;DHT22;43322;52.230;5.702;2023-02-15T14:21:10;11.80;99.90
23719;DHT22;43322;52.230;5.702;2023-02-15T14:23:51;12.10;99.90
23719;DHT22;43322;52.230;5.702;2023-02-15T14:26:29;11.70;99.90
23719;DHT22;43322;52.230;5.702;2023-02-15T14:29:12;11.70;99.90
23719;DHT22;43322;52.230;5.702;2023-02-15T14:31:43;11.60;99.90
23719;DHT22;43322;52.230;5.702;2023-02-15T14:34:19;12.30;99.90
23719;DHT22;43322;52.230;5.702;2023-02-15T14:36:47;11.50;99.90
23719;DHT22;43322;52.230;5.702;2023-02-15T14:39:26;11.40;99.90
23719;DHT22;43322;52.230;5.702;2023-02-15T14:42:20;11.30;99.90
23719;DHT22;43322;52.230;5.702;2023-02-15T14:44:51;11.20;99.90
23719;DHT22;43322;52.230;5.702;2023-02-15T14:47:21;11.10;99.90
23719;DHT22;43322;52.230;5.702;2023-02-15T14:49:49;11.10;99.90
23719;DHT22;43322;52.230;5.702;2023-02-15T14:52:16;11.00;99.90
23719;DHT22;43322;52.230;5.702;2023-02-15T14:54:55;10.90;99.90
23719;DHT22;43322;52.230;5.702;2023-02-15T14:57:25;11.00;99.90
23719;DHT22;43322;52.230;5.702;2023-02-15T14:59:54;11.00;99.90
23719;DHT22;43322;52.230;5.702;2023-02-15T15:02:28;10.90;99.90
23719;DHT22;43322;52.230;5.702;2023-02-15T15:05:00;10.90;99.90
23719;DHT22;43322;52.230;5.702;2023-02-15T15:07:41;10.80;99.90
23719;DHT22;43322;52.230;5.702;2023-02-15T15:10:37;10.70;99.90
23719;DHT22;43322;52.230;5.702;2023-02-15T15:13:39;10.70;99.90
23719;DHT22;43322;52.230;5.702;2023-02-15T15:16:47;10.60;99.90
23719;DHT22;43322;52.230;5.702;2023-02-15T15:22:31;10.50;99.90
23719;DHT22;43322;52.230;5.702;2023-02-15T15:24:59;10.40;99.90
23719;DHT22;43322;52.230;5.702;2023-02-15T15:27:47;10.40;99.90
23719;DHT22;43322;52.230;5.702;2023-02-15T15:30:47;10.30;99.90
23719;DHT22;43322;52.230;5.702;2023-02-15T15:39:44;10.20;99.90
23719;DHT22;43322;52.230;5.702;2023-02-15T15:42:27;10.20;99.90
23719;DHT22;43322;52.230;5.702;2023-02-15T15:45:24;10.10;99.90
23719;DHT22;43322;52.230;5.702;2023-02-15T15:48:19;10.10;99.90
23719;DHT22;43322;52.230;5.702;2023-02-15T15:50:51;10.10;99.90
23719;DHT22;43322;52.230;5.702;2023-02-15T15:53:22;10.10;99.90
23719;DHT22;43322;52.230;5.702;2023-02-15T15:55:52;10.00;99.90
23719;DHT22;43322;52.230;5.702;2023-02-15T15:58:22;10.20;99.90
23719;DHT22;43322;52.230;5.702;2023-02-15T16:00:53;9.80;99.90
23719;DHT22;43322;52.230;5.702;2023-02-15T16:03:22;9.80;99.90
23719;DHT22;43322;52.230;5.702;2023-02-15T16:05:49;9.80;99.90
23719;DHT22;43322;52.230;5.702;2023-02-15T16:08:29;9.90;99.90
23719;DHT22;43322;52.230;5.702;2023-02-15T16:10:57;9.70;99.90
23719;DHT22;43322;52.230;5.702;2023-02-15T16:13:25;9.60;99.90
23719;DHT22;43322;52.230;5.702;2023-02-15T16:15:54;9.50;99.90
23719;DHT22;43322;52.230;5.702;2023-02-15T16:18:24;9.40;99.90
23719;DHT22;43322;52.230;5.702;2023-02-15T16:20:53;9.30;99.90
23719;DHT22;43322;52.230;5.702;2023-02-15T16:26:47;9.20;99.90
23719;DHT22;43322;52.230;5.702;2023-02-15T16:29:25;9.30;99.90
23719;DHT22;43322;52.230;5.702;2023-02-15T16:32:01;9.20;99.90
23719;DHT22;43322;52.230;5.702;2023-02-15T16:34:29;9.20;99.90
23719;DHT22;43322;52.230;5.702;2023-02-15T16:37:14;9.00;99.90